Time,TemperatureF,DewpointF,PressureIn,WindDirection,WindDirectionDegrees,WindSpeedMPH,WindSpeedGustMPH,Humidity,HourlyPrecipIn,Conditions,Clouds,dailyrainin,SoftwareType,DateUTC
2013-03-23 00:12:00,52.0,43.0,29.44,WSW,246,4.0,-999.0,71,0.00,,,0.00,,2013-03-23 07:12:00,
2013-03-23 00:22:00,52.0,43.0,29.44,WSW,246,4.0,-999.0,71,0.00,,,0.00,,2013-03-23 07:22:00,
2013-03-23 00:32:00,52.0,43.0,29.44,WSW,246,4.0,-999.0,71,0.00,,,0.00,,2013-03-23 07:32:00,
2013-03-23 00:42:00,52.0,43.0,29.44,WSW,246,4.0,-999.0,71,0.00,,,0.00,,2013-03-23 07:42:00,
2013-03-23 01:12:00,51.0,42.0,29.42,North,357,7.0,-999.0,71,0.00,,,0.00,,2013-03-23 08:12:00,
2013-03-23 01:22:00,51.0,42.0,29.42,North,357,7.0,-999.0,71,0.00,,,0.00,,2013-03-23 08:22:00,
2013-03-23 01:32:00,51.0,42.0,29.42,North,357,7.0,-999.0,71,0.00,,,0.00,,2013-03-23 08:32:00,
2013-03-23 01:42:00,51.0,42.0,29.42,North,357,7.0,-999.0,71,0.00,,,0.00,,2013-03-23 08:42:00,
2013-03-23 02:12:00,50.0,42.0,29.44,NNW,348,2.0,-999.0,72,0.00,,,0.00,,2013-03-23 09:12:00,
2013-03-23 02:22:00,50.0,42.0,29.44,NNW,348,2.0,-999.0,72,0.00,,,0.00,,2013-03-23 09:22:00,
2013-03-23 02:32:00,50.0,42.0,29.44,NNW,348,2.0,-999.0,72,0.00,,,0.00,,2013-03-23 09:32:00,
2013-03-23 02:42:00,50.0,42.0,29.44,NNW,348,2.0,-999.0,72,0.00,,,0.00,,2013-03-23 09:42:00,
2013-03-23 03:12:00,49.0,42.0,29.45,NNE,30,4.0,-999.0,75,0.00,,,-99.99,,2013-03-23 10:12:00,
2013-03-23 03:23:00,49.0,42.0,29.45,NNE,30,4.0,-999.0,75,0.00,,,-99.99,,2013-03-23 10:23:00,
2013-03-23 03:33:00,49.0,42.0,29.45,NNE,30,4.0,-999.0,75,0.00,,,-99.99,,2013-03-23 10:33:00,
2013-03-23 03:42:00,49.0,42.0,29.45,NNE,30,4.0,-999.0,75,0.00,,,-99.99,,2013-03-23 10:42:00,
2013-03-23 04:12:00,47.0,40.0,29.44,West,275,3.0,-999.0,78,0.00,,,0.00,,2013-03-23 11:12:00,
2013-03-23 04:22:00,47.0,40.0,29.44,West,275,3.0,-999.0,78,0.00,,,0.00,,2013-03-23 11:22:00,
2013-03-23 04:32:00,47.0,40.0,29.44,West,275,3.0,-999.0,78,0.00,,,0.00,,2013-03-23 11:32:00,
2013-03-23 04:42:00,47.0,40.0,29.44,West,275,3.0,-999.0,78,0.00,,,0.00,,2013-03-23 11:42:00,
2013-03-23 05:12:00,44.0,40.0,29.44,SW,230,3.0,-999.0,86,0.00,,,0.00,,2013-03-23 12:12:00,
2013-03-23 05:22:00,44.0,40.0,29.44,SW,230,3.0,-999.0,86,0.00,,,0.00,,2013-03-23 12:22:00,
2013-03-23 05:33:00,44.0,40.0,29.44,SW,230,3.0,-999.0,86,0.00,,,0.00,,2013-03-23 12:33:00,
2013-03-23 05:42:00,44.0,40.0,29.44,SW,230,3.0,-999.0,86,0.00,,,0.00,,2013-03-23 12:42:00,
2013-03-23 06:12:00,42.0,38.0,29.46,West,265,2.0,-999.0,86,0.00,,,0.00,,2013-03-23 13:12:00,
2013-03-23 06:22:00,42.0,38.0,29.46,West,265,2.0,-999.0,86,0.00,,,0.00,,2013-03-23 13:22:00,
2013-03-23 06:32:00,42.0,38.0,29.46,West,265,2.0,-999.0,86,0.00,,,0.00,,2013-03-23 13:32:00,
2013-03-23 06:42:00,42.0,38.0,29.46,West,265,2.0,-999.0,86,0.00,,,0.00,,2013-03-23 13:42:00,
2013-03-23 07:12:00,45.0,41.0,29.48,SE,137,4.0,-999.0,85,0.00,,,0.00,,2013-03-23 14:12:00,
2013-03-23 07:22:00,45.0,41.0,29.48,SE,137,4.0,-999.0,85,0.00,,,0.00,,2013-03-23 14:22:00,
2013-03-23 07:32:00,45.0,41.0,29.48,SE,137,4.0,-999.0,85,0.00,,,0.00,,2013-03-23 14:32:00,
2013-03-23 07:42:00,45.0,41.0,29.48,SE,137,4.0,-999.0,85,0.00,,,0.00,,2013-03-23 14:42:00,
2013-03-23 08:12:00,47.0,41.0,29.49,SSW,194,5.0,-999.0,81,0.00,,,0.00,,2013-03-23 15:12:00,
2013-03-23 08:22:00,47.0,41.0,29.49,SSW,194,5.0,-999.0,81,0.00,,,0.00,,2013-03-23 15:22:00,
2013-03-23 08:33:00,47.0,41.0,29.49,SSW,194,5.0,-999.0,81,0.00,,,0.00,,2013-03-23 15:33:00,
2013-03-23 08:43:00,47.0,41.0,29.49,SSW,194,5.0,-999.0,81,0.00,,,0.00,,2013-03-23 15:43:00,
2013-03-23 09:12:00,50.0,41.0,29.51,East,86,5.0,-999.0,72,0.00,,,0.00,,2013-03-23 16:12:00,
2013-03-23 09:22:00,50.0,41.0,29.51,East,86,5.0,-999.0,72,0.00,,,0.00,,2013-03-23 16:22:00,
2013-03-23 09:32:00,50.0,41.0,29.51,East,86,5.0,-999.0,72,0.00,,,0.00,,2013-03-23 16:32:00,
2013-03-23 09:42:00,50.0,41.0,29.51,East,86,5.0,-999.0,72,0.00,,,0.00,,2013-03-23 16:42:00,
2013-03-23 10:12:00,56.0,42.0,29.50,East,98,2.0,-999.0,58,0.00,,,0.00,,2013-03-23 17:12:00,
2013-03-23 10:22:00,56.0,42.0,29.50,East,98,2.0,-999.0,58,0.00,,,0.00,,2013-03-23 17:22:00,
2013-03-23 10:32:00,56.0,42.0,29.50,East,98,2.0,-999.0,58,0.00,,,0.00,,2013-03-23 17:32:00,
2013-03-23 10:42:00,56.0,42.0,29.50,East,98,2.0,-999.0,58,0.00,,,0.00,,2013-03-23 17:42:00,
2013-03-23 11:12:00,62.0,32.0,29.51,WNW,290,6.0,-999.0,33,0.00,,,0.00,,2013-03-23 18:12:00,
2013-03-23 11:22:00,62.0,32.0,29.51,WNW,290,6.0,-999.0,33,0.00,,,0.00,,2013-03-23 18:22:00,
2013-03-23 11:32:00,62.0,32.0,29.51,WNW,290,6.0,-999.0,33,0.00,,,0.00,,2013-03-23 18:32:00,
2013-03-23 11:42:00,62.0,32.0,29.51,WNW,290,6.0,-999.0,33,0.00,,,0.00,,2013-03-23 18:42:00,
2013-03-23 12:12:00,68.0,31.0,29.49,NW,318,1.0,-999.0,25,0.00,,,0.00,,2013-03-23 19:12:00,
2013-03-23 12:22:00,68.0,31.0,29.49,NW,318,1.0,-999.0,25,0.00,,,0.00,,2013-03-23 19:22:00,
2013-03-23 12:32:00,68.0,31.0,29.49,NW,318,1.0,-999.0,25,0.00,,,0.00,,2013-03-23 19:32:00,
2013-03-23 12:42:00,68.0,31.0,29.49,NW,318,1.0,-999.0,25,0.00,,,0.00,,2013-03-23 19:42:00,
2013-03-23 13:12:00,67.0,30.0,29.46,SSW,208,5.0,-999.0,25,0.00,,,-99.99,,2013-03-23 20:12:00,
2013-03-23 13:22:00,67.0,30.0,29.46,SSW,208,5.0,-999.0,25,0.00,,,-99.99,,2013-03-23 20:22:00,
2013-03-23 13:32:00,67.0,30.0,29.46,SSW,208,5.0,-999.0,25,0.00,,,-99.99,,2013-03-23 20:32:00,
2013-03-23 13:42:00,67.0,30.0,29.46,SSW,208,5.0,-999.0,25,0.00,,,-99.99,,2013-03-23 20:42:00,
2013-03-23 14:12:00,67.0,29.0,29.45,WNW,290,6.0,-999.0,24,0.00,,,0.00,,2013-03-23 21:12:00,
2013-03-23 14:22:00,67.0,29.0,29.45,WNW,290,6.0,-999.0,24,0.00,,,0.00,,2013-03-23 21:22:00,
2013-03-23 14:32:00,67.0,29.0,29.45,WNW,290,6.0,-999.0,24,0.00,,,0.00,,2013-03-23 21:32:00,
2013-03-23 15:12:00,68.0,31.0,29.44,SW,231,5.0,-999.0,25,0.00,,,0.00,,2013-03-23 22:12:00,
2013-03-23 15:23:00,68.0,31.0,29.44,SW,231,5.0,-999.0,25,0.00,,,0.00,,2013-03-23 22:23:00,
2013-03-23 15:32:00,68.0,31.0,29.44,SW,231,5.0,-999.0,25,0.00,,,0.00,,2013-03-23 22:32:00,
2013-03-23 15:42:00,68.0,31.0,29.44,SW,231,5.0,-999.0,25,0.00,,,0.00,,2013-03-23 22:42:00,
2013-03-23 16:12:00,68.0,31.0,29.42,SW,217,4.0,-999.0,25,0.00,,,0.00,,2013-03-23 23:12:00,
2013-03-23 16:22:00,68.0,31.0,29.42,SW,217,4.0,-999.0,25,0.00,,,0.00,,2013-03-23 23:22:00,
2013-03-23 16:32:00,68.0,31.0,29.42,SW,217,4.0,-999.0,25,0.00,,,0.00,,2013-03-23 23:32:00,
2013-03-23 16:42:00,68.0,31.0,29.42,SW,217,4.0,-999.0,25,0.00,,,0.00,,2013-03-23 23:42:00,
2013-03-23 17:12:00,72.0,32.0,29.41,West,274,3.0,-999.0,23,0.00,,,0.00,,2013-03-24 00:12:00,
2013-03-23 17:22:00,72.0,32.0,29.41,West,274,3.0,-999.0,23,0.00,,,0.00,,2013-03-24 00:22:00,
2013-03-23 17:32:00,72.0,32.0,29.41,West,274,3.0,-999.0,23,0.00,,,0.00,,2013-03-24 00:32:00,
2013-03-23 17:42:00,72.0,32.0,29.41,West,274,3.0,-999.0,23,0.00,,,0.00,,2013-03-24 00:42:00,
2013-03-23 18:12:00,67.0,33.0,29.40,West,263,2.0,-999.0,28,0.00,,,0.00,,2013-03-24 01:12:00,
2013-03-23 18:22:00,67.0,33.0,29.40,West,263,2.0,-999.0,28,0.00,,,0.00,,2013-03-24 01:22:00,
2013-03-23 18:32:00,67.0,33.0,29.40,West,263,2.0,-999.0,28,0.00,,,0.00,,2013-03-24 01:32:00,
2013-03-23 18:42:00,67.0,33.0,29.40,West,263,2.0,-999.0,28,0.00,,,0.00,,2013-03-24 01:42:00,
2013-03-23 19:12:00,63.0,39.0,29.40,WNW,287,3.0,-999.0,41,0.00,,,0.00,,2013-03-24 02:12:00,
2013-03-23 19:22:00,63.0,39.0,29.40,WNW,287,3.0,-999.0,41,0.00,,,0.00,,2013-03-24 02:22:00,
2013-03-23 19:32:00,63.0,39.0,29.40,WNW,287,3.0,-999.0,41,0.00,,,0.00,,2013-03-24 02:32:00,
2013-03-23 19:42:00,63.0,39.0,29.40,WNW,287,3.0,-999.0,41,0.00,,,0.00,,2013-03-24 02:42:00,
2013-03-23 20:12:00,60.0,39.0,29.42,ENE,67,6.0,-999.0,46,0.00,,,0.00,,2013-03-24 03:12:00,
2013-03-23 20:22:00,60.0,39.0,29.42,ENE,67,6.0,-999.0,46,0.00,,,0.00,,2013-03-24 03:22:00,
2013-03-23 20:33:00,60.0,39.0,29.42,ENE,67,6.0,-999.0,46,0.00,,,0.00,,2013-03-24 03:33:00,
2013-03-23 20:42:00,60.0,39.0,29.42,ENE,67,6.0,-999.0,46,0.00,,,0.00,,2013-03-24 03:42:00,
2013-03-23 21:12:00,58.0,38.0,29.44,NNE,22,5.0,-999.0,49,0.00,,,0.00,,2013-03-24 04:12:00,
2013-03-23 21:22:00,58.0,38.0,29.44,NNE,22,5.0,-999.0,49,0.00,,,0.00,,2013-03-24 04:22:00,
2013-03-23 21:32:00,58.0,38.0,29.44,NNE,22,5.0,-999.0,49,0.00,,,0.00,,2013-03-24 04:32:00,
2013-03-23 21:42:00,58.0,38.0,29.44,NNE,22,5.0,-999.0,49,0.00,,,0.00,,2013-03-24 04:42:00,
2013-03-23 22:12:00,56.0,40.0,29.45,NE,46,5.0,-999.0,55,0.00,,,0.00,,2013-03-24 05:12:00,
2013-03-23 22:22:00,56.0,40.0,29.45,NE,46,5.0,-999.0,55,0.00,,,0.00,,2013-03-24 05:22:00,
2013-03-23 22:32:00,56.0,40.0,29.45,NE,46,5.0,-999.0,55,0.00,,,0.00,,2013-03-24 05:32:00,
2013-03-23 22:42:00,56.0,40.0,29.45,NE,46,5.0,-999.0,55,0.00,,,0.00,,2013-03-24 05:42:00,
2013-03-23 23:12:00,54.0,40.0,29.47,West,275,2.0,-999.0,60,0.00,,,0.00,,2013-03-24 06:12:00,
2013-03-23 23:22:00,54.0,40.0,29.47,West,275,2.0,-999.0,60,0.00,,,0.00,,2013-03-24 06:22:00,
2013-03-23 23:32:00,54.0,40.0,29.47,West,275,2.0,-999.0,60,0.00,,,0.00,,2013-03-24 06:32:00,
2013-03-23 23:42:00,54.0,40.0,29.47,West,275,2.0,-999.0,60,0.00,,,0.00,,2013-03-24 06:42:00,